createdAt,value
2018-12-23T00:02:16.291Z,5.15
2018-12-23T00:04:43.795Z,5.10
2018-12-23T00:07:11.289Z,5.15
2018-12-23T00:09:38.899Z,5.18
2018-12-23T00:12:06.387Z,5.28
2018-12-23T00:14:33.850Z,5.36
2018-12-23T00:17:01.464Z,5.53
2018-12-23T00:19:29.056Z,5.54
2018-12-23T00:21:56.586Z,5.58
2018-12-23T00:24:24.059Z,5.64
2018-12-23T00:26:53.416Z,5.71
2018-12-23T00:29:21.117Z,5.67
2018-12-23T00:31:48.563Z,5.64
2018-12-23T00:34:16.025Z,5.72
2018-12-23T00:36:43.636Z,5.64
2018-12-23T00:39:11.172Z,5.70
2018-12-23T00:41:38.631Z,5.73
2018-12-23T00:44:06.189Z,5.62
2018-12-23T00:46:33.729Z,5.61
2018-12-23T00:49:01.197Z,5.62
2018-12-23T00:51:28.663Z,5.68
2018-12-23T00:53:56.246Z,5.82
2018-12-23T00:56:23.836Z,5.79
2018-12-23T00:58:51.348Z,5.75
2018-12-23T01:01:18.812Z,5.72
2018-12-23T01:03:46.322Z,5.61
2018-12-23T01:06:13.973Z,5.66
2018-12-23T01:08:41.533Z,5.65
2018-12-23T01:11:09.047Z,5.89
2018-12-23T01:13:36.510Z,5.91
2018-12-23T01:16:03.986Z,5.80
2018-12-23T01:18:31.574Z,5.81
2018-12-23T01:20:59.048Z,5.70
2018-12-23T01:23:26.527Z,5.67
2018-12-23T01:25:54.002Z,5.82
2018-12-23T01:28:21.540Z,5.85
2018-12-23T01:30:49.120Z,5.92
2018-12-23T01:33:16.619Z,5.87
2018-12-23T01:35:44.157Z,5.80
2018-12-23T01:38:11.627Z,5.72
2018-12-23T01:40:39.191Z,5.69
2018-12-23T01:43:06.662Z,5.56
2018-12-23T01:45:34.158Z,5.44
2018-12-23T01:48:01.683Z,5.57
2018-12-23T01:50:29.283Z,5.39
2018-12-23T01:52:56.817Z,5.48
2018-12-23T01:55:24.410Z,5.45
2018-12-23T01:57:51.886Z,5.43
2018-12-23T02:00:19.352Z,5.57
2018-12-23T02:02:46.835Z,5.51
2018-12-23T02:05:14.319Z,5.66
2018-12-23T02:07:41.812Z,5.66
2018-12-23T02:10:09.341Z,5.69
2018-12-23T02:12:36.911Z,5.59
2018-12-23T02:15:04.500Z,5.76
2018-12-23T02:17:31.972Z,5.84
2018-12-23T02:19:59.491Z,5.78
2018-12-23T02:22:26.994Z,5.78
2018-12-23T02:24:54.515Z,5.77
2018-12-23T02:27:21.998Z,5.70
2018-12-23T02:29:49.448Z,5.85
2018-12-23T02:32:16.935Z,5.76
2018-12-23T02:34:44.407Z,5.65
2018-12-23T02:37:11.935Z,5.69
2018-12-23T02:39:39.385Z,5.64
2018-12-23T02:42:06.851Z,5.83
2018-12-23T02:44:34.372Z,5.87
2018-12-23T02:47:01.937Z,5.93
2018-12-23T02:49:29.387Z,5.91
2018-12-23T02:51:56.860Z,5.88
2018-12-23T02:54:24.323Z,5.91
2018-12-23T02:56:51.791Z,5.85
2018-12-23T02:59:19.317Z,5.81
2018-12-23T03:01:46.878Z,5.76
2018-12-23T03:04:14.359Z,5.72
2018-12-23T03:06:41.835Z,5.71
2018-12-23T03:09:09.363Z,5.80
2018-12-23T03:11:36.829Z,5.81
2018-12-23T03:14:04.331Z,5.86
2018-12-23T03:16:32.048Z,5.86
2018-12-23T03:18:59.516Z,5.93
2018-12-23T03:21:27.050Z,5.88
2018-12-23T03:23:54.570Z,5.97
2018-12-23T03:26:22.111Z,5.93
2018-12-23T03:28:49.612Z,5.77
2018-12-23T03:31:17.144Z,5.96
2018-12-23T03:33:44.802Z,5.90
2018-12-23T03:36:15.241Z,5.91
2018-12-23T03:38:41.939Z,5.80
2018-12-23T03:41:09.397Z,5.79
2018-12-23T03:43:36.880Z,5.75
2018-12-23T03:46:04.360Z,5.64
2018-12-23T03:48:31.818Z,5.69
2018-12-23T03:50:59.275Z,5.75
2018-12-23T03:53:26.721Z,5.84
2018-12-23T03:55:54.199Z,5.99
2018-12-23T03:58:21.665Z,5.93
2018-12-23T04:00:49.127Z,5.88
2018-12-23T04:03:16.592Z,6.06
2018-12-23T04:05:44.093Z,6.03
2018-12-23T04:08:11.578Z,5.97
2018-12-23T04:10:39.072Z,5.97
2018-12-23T04:13:06.533Z,5.96
2018-12-23T04:15:34.003Z,6.02
2018-12-23T04:18:01.568Z,5.94
2018-12-23T04:20:29.081Z,5.96
2018-12-23T04:22:56.539Z,5.96
2018-12-23T04:25:24.009Z,5.87
2018-12-23T04:27:51.547Z,6.01
2018-12-23T04:30:19.103Z,5.98
2018-12-23T04:32:46.569Z,5.89
2018-12-23T04:35:14.018Z,5.92
2018-12-23T04:37:41.475Z,5.90
2018-12-23T04:40:09.026Z,5.91
2018-12-23T04:42:36.501Z,6.01
2018-12-23T04:45:04.200Z,6.00
2018-12-23T04:47:31.765Z,6.13
2018-12-23T04:49:59.244Z,6.04
2018-12-23T04:52:26.805Z,6.06
2018-12-23T04:54:54.253Z,6.19
2018-12-23T04:57:21.827Z,6.20
2018-12-23T04:59:49.323Z,6.17
2018-12-23T05:02:16.862Z,6.06
2018-12-23T05:04:44.371Z,6.13
2018-12-23T05:07:11.860Z,6.13
2018-12-23T05:09:39.376Z,6.12
2018-12-23T05:12:06.838Z,6.18
2018-12-23T05:14:34.354Z,6.23
2018-12-23T05:17:01.850Z,6.16
2018-12-23T05:19:29.307Z,6.15
2018-12-23T05:21:56.762Z,6.16
2018-12-23T05:24:24.325Z,6.22
2018-12-23T05:26:51.784Z,6.14
2018-12-23T05:29:19.228Z,6.11
2018-12-23T05:31:46.708Z,6.18
2018-12-23T05:34:14.170Z,6.15
2018-12-23T05:36:41.643Z,6.21
2018-12-23T05:39:09.094Z,6.18
2018-12-23T05:41:36.658Z,6.19
2018-12-23T05:44:04.122Z,6.05
2018-12-23T05:46:31.614Z,6.10
2018-12-23T05:48:59.192Z,6.13
2018-12-23T05:51:26.756Z,6.25
2018-12-23T05:53:54.230Z,6.28
2018-12-23T05:56:21.702Z,6.20
2018-12-23T05:58:49.152Z,6.23
2018-12-23T06:01:16.648Z,6.29
2018-12-23T06:03:44.118Z,6.27
2018-12-23T06:06:11.598Z,6.35
2018-12-23T06:08:39.170Z,6.39
2018-12-23T06:11:06.718Z,6.39
2018-12-23T06:13:34.162Z,6.31
2018-12-23T06:16:01.750Z,6.41
2018-12-23T06:18:29.216Z,6.34
2018-12-23T06:20:56.676Z,6.37
2018-12-23T06:23:24.137Z,6.37
2018-12-23T06:25:51.598Z,6.42
2018-12-23T06:28:19.095Z,6.51
2018-12-23T06:30:46.553Z,6.56
2018-12-23T06:33:14.035Z,6.50
2018-12-23T06:35:41.570Z,6.60
2018-12-23T06:38:09.128Z,6.56
2018-12-23T06:40:36.578Z,6.63
2018-12-23T06:43:04.059Z,6.60
2018-12-23T06:45:31.627Z,6.55
2018-12-23T06:47:59.091Z,6.56
2018-12-23T06:50:26.547Z,6.57
2018-12-23T06:52:54.074Z,6.60
2018-12-23T06:55:21.566Z,6.64
2018-12-23T06:57:49.024Z,6.64
2018-12-23T07:00:16.586Z,6.65
2018-12-23T07:02:44.206Z,6.63
2018-12-23T07:05:11.678Z,6.56
2018-12-23T07:07:39.156Z,6.56
2018-12-23T07:10:08.261Z,6.63
2018-12-23T07:12:35.726Z,6.69
2018-12-23T07:15:03.272Z,6.62
2018-12-23T07:17:30.896Z,6.60
2018-12-23T07:19:58.668Z,6.59
2018-12-23T07:22:26.156Z,6.64
2018-12-23T07:24:53.729Z,6.58
2018-12-23T07:27:21.192Z,6.70
2018-12-23T07:29:48.686Z,6.56
2018-12-23T07:32:16.161Z,6.59
2018-12-23T07:34:43.688Z,6.66
2018-12-23T07:37:11.167Z,6.72
2018-12-23T07:39:38.635Z,6.73
2018-12-23T07:42:06.138Z,6.81
2018-12-23T07:44:33.628Z,6.87
2018-12-23T07:47:01.153Z,6.92
2018-12-23T07:49:28.729Z,6.85
2018-12-23T07:51:56.290Z,6.91
2018-12-23T07:54:24.545Z,6.99
2018-12-23T07:56:52.078Z,6.92
2018-12-23T07:59:19.536Z,6.99
2018-12-23T08:01:46.977Z,7.01
2018-12-23T08:04:14.464Z,6.98
2018-12-23T08:06:41.928Z,7.04
2018-12-23T08:09:09.402Z,7.08
2018-12-23T08:11:36.855Z,7.12
2018-12-23T08:14:04.352Z,7.10
2018-12-23T08:16:31.893Z,7.15
2018-12-23T08:18:59.491Z,7.07
2018-12-23T08:21:26.960Z,7.11
2018-12-23T08:23:54.434Z,7.16
2018-12-23T08:26:21.902Z,7.18
2018-12-23T08:28:49.399Z,7.18
2018-12-23T08:31:16.936Z,7.23
2018-12-23T08:33:44.466Z,7.17
2018-12-23T08:36:11.983Z,7.22
2018-12-23T08:38:39.460Z,7.22
2018-12-23T08:41:06.952Z,7.22
2018-12-23T08:43:34.471Z,7.12
2018-12-23T08:46:01.978Z,7.26
2018-12-23T08:48:29.461Z,7.27
2018-12-23T08:50:57.039Z,7.26
2018-12-23T08:53:24.570Z,7.31
2018-12-23T08:55:52.031Z,7.32
2018-12-23T08:58:19.496Z,7.29
2018-12-23T09:00:47.080Z,7.23
2018-12-23T09:03:18.841Z,7.31
2018-12-23T09:05:44.137Z,7.41
2018-12-23T09:08:11.613Z,7.44
2018-12-23T09:10:39.074Z,7.51
2018-12-23T09:13:06.641Z,7.56
2018-12-23T09:15:34.119Z,7.52
2018-12-23T09:18:01.605Z,7.60
2018-12-23T09:20:29.114Z,7.47
2018-12-23T09:22:56.645Z,7.49
2018-12-23T09:25:24.098Z,7.64
2018-12-23T09:27:51.539Z,7.62
2018-12-23T09:30:19.045Z,7.58
2018-12-23T09:32:46.589Z,7.55
2018-12-23T09:35:14.079Z,7.72
2018-12-23T09:37:41.531Z,7.76
2018-12-23T09:40:09.054Z,7.80
2018-12-23T09:42:36.539Z,7.78
2018-12-23T09:45:04.301Z,7.83
2018-12-23T09:47:31.783Z,7.78
2018-12-23T09:49:59.293Z,7.89
2018-12-23T09:52:26.763Z,7.92
2018-12-23T09:54:54.329Z,7.92
2018-12-23T09:57:21.928Z,8.12
2018-12-23T09:59:49.397Z,8.09
2018-12-23T10:02:16.846Z,8.04
2018-12-23T10:04:44.427Z,8.03
2018-12-23T10:07:11.893Z,8.02
2018-12-23T10:09:39.397Z,7.93
2018-12-23T10:12:06.879Z,7.91
2018-12-23T10:14:34.343Z,8.00
2018-12-23T10:17:01.868Z,7.97
2018-12-23T10:19:29.389Z,8.03
2018-12-23T10:21:56.925Z,8.09
2018-12-23T10:24:24.481Z,8.18
2018-12-23T10:26:52.033Z,8.20
2018-12-23T10:29:19.766Z,8.29
2018-12-23T10:31:47.212Z,8.34
2018-12-23T10:34:14.864Z,8.34
2018-12-23T10:36:42.328Z,8.46
2018-12-23T10:39:09.835Z,8.54
2018-12-23T10:41:37.314Z,8.44
2018-12-23T10:44:04.806Z,8.37
2018-12-23T10:46:32.413Z,8.33
2018-12-23T10:48:59.926Z,8.37
2018-12-23T10:51:27.369Z,8.33
2018-12-23T10:53:54.848Z,8.31
2018-12-23T10:56:22.326Z,8.28
2018-12-23T10:58:49.787Z,8.23
2018-12-23T11:01:17.271Z,8.22
2018-12-23T11:03:44.816Z,8.20
2018-12-23T11:06:12.287Z,8.29
2018-12-23T11:08:39.738Z,8.31
2018-12-23T11:11:07.300Z,8.37
2018-12-23T11:13:34.757Z,8.42
2018-12-23T11:16:02.218Z,8.51
2018-12-23T11:18:29.688Z,8.54
2018-12-23T11:20:57.223Z,8.61
2018-12-23T11:23:24.668Z,8.60
2018-12-23T11:25:52.185Z,8.71
2018-12-23T11:28:19.757Z,8.60
2018-12-23T11:30:47.246Z,8.62
2018-12-23T11:33:14.686Z,8.57
2018-12-23T11:35:42.162Z,8.42
2018-12-23T11:38:09.628Z,8.33
2018-12-23T11:40:37.099Z,8.37
2018-12-23T11:43:04.592Z,8.24
2018-12-23T11:45:32.093Z,8.39
2018-12-23T11:47:59.550Z,8.18
2018-12-23T11:50:27.045Z,8.18
2018-12-23T11:52:54.543Z,8.27
2018-12-23T11:55:22.062Z,8.30
2018-12-23T11:57:49.552Z,8.37
2018-12-23T12:00:17.054Z,8.34
2018-12-23T12:02:44.542Z,8.21
2018-12-23T12:05:12.012Z,8.26
2018-12-23T12:07:39.488Z,8.21
2018-12-23T12:10:07.000Z,8.21
2018-12-23T12:12:34.458Z,8.36
2018-12-23T12:15:01.907Z,8.43
2018-12-23T12:17:29.387Z,8.43
2018-12-23T12:19:56.920Z,8.47
2018-12-23T12:22:24.556Z,8.48
2018-12-23T12:24:52.034Z,8.51
2018-12-23T12:27:19.508Z,8.47
2018-12-23T12:29:46.961Z,8.45
2018-12-23T12:32:14.438Z,8.32
2018-12-23T12:34:41.979Z,8.31
2018-12-23T12:37:09.568Z,8.20
2018-12-23T12:39:37.097Z,8.14
2018-12-23T12:42:04.592Z,8.07
2018-12-23T12:44:32.079Z,7.95
2018-12-23T12:46:59.585Z,7.91
2018-12-23T12:49:27.085Z,7.90
2018-12-23T12:51:54.540Z,7.87
2018-12-23T12:54:23.226Z,7.82
2018-12-23T12:56:50.796Z,7.84
2018-12-23T12:59:18.385Z,7.78
2018-12-23T13:01:45.832Z,7.72
2018-12-23T13:04:13.860Z,7.78
2018-12-23T13:06:41.360Z,7.79
2018-12-23T13:09:08.870Z,7.70
2018-12-23T13:11:36.398Z,7.75
2018-12-23T13:14:03.964Z,7.71
2018-12-23T13:16:31.441Z,7.78
2018-12-23T13:18:58.898Z,7.61
2018-12-23T13:21:26.367Z,7.62
2018-12-23T13:23:53.834Z,7.73
2018-12-23T13:26:21.334Z,7.75
2018-12-23T13:28:48.848Z,7.67
2018-12-23T13:31:16.310Z,7.75
2018-12-23T13:33:43.790Z,7.77
2018-12-23T13:36:11.267Z,7.78
2018-12-23T13:38:38.749Z,7.69
2018-12-23T13:41:11.024Z,7.84
2018-12-23T13:43:48.243Z,7.92
2018-12-23T13:46:24.396Z,7.90
2018-12-23T13:49:00.314Z,7.78
2018-12-23T13:51:53.079Z,7.76
2018-12-23T13:58:06.860Z,7.88
2018-12-23T14:00:57.900Z,7.85
2018-12-23T14:03:50.810Z,7.84
2018-12-23T14:06:42.846Z,7.86
2018-12-23T14:09:17.349Z,7.77
2018-12-23T14:11:54.404Z,7.82
2018-12-23T14:14:23.021Z,7.82
2018-12-23T14:16:51.616Z,7.79
2018-12-23T14:19:20.166Z,7.88
2018-12-23T14:21:48.716Z,7.83
2018-12-23T14:24:17.276Z,7.86
2018-12-23T14:26:45.836Z,7.83
2018-12-23T14:29:14.406Z,7.89
2018-12-23T14:31:43.049Z,7.82
2018-12-23T14:34:13.786Z,7.85
2018-12-23T14:36:41.960Z,7.82
2018-12-23T14:39:10.502Z,7.82
2018-12-23T14:41:39.062Z,7.79
2018-12-23T14:44:07.604Z,7.72
2018-12-23T14:46:36.152Z,7.72
2018-12-23T14:49:04.731Z,7.75
2018-12-23T14:51:33.288Z,7.76
2018-12-23T14:54:01.852Z,7.75
2018-12-23T14:56:30.394Z,7.69
2018-12-23T14:58:58.943Z,7.68
2018-12-23T15:01:27.527Z,7.58
2018-12-23T15:03:56.080Z,7.64
2018-12-23T15:06:24.633Z,7.65
2018-12-23T15:08:53.186Z,7.53
2018-12-23T15:11:21.782Z,7.61
2018-12-23T15:13:50.367Z,7.57
2018-12-23T15:16:18.896Z,7.59
2018-12-23T15:18:47.509Z,7.57
2018-12-23T15:21:16.031Z,7.56
2018-12-23T15:23:44.577Z,7.58
2018-12-23T15:26:13.168Z,7.55
2018-12-23T15:28:41.738Z,7.55
2018-12-23T15:31:11.882Z,7.55
2018-12-23T15:33:40.431Z,7.56
2018-12-23T15:36:09.111Z,7.47
2018-12-23T15:38:37.686Z,7.55
2018-12-23T15:41:06.239Z,7.56
2018-12-23T15:43:34.805Z,7.56
2018-12-23T15:46:03.365Z,7.52
2018-12-23T15:48:31.951Z,7.58
2018-12-23T15:51:00.498Z,7.56
2018-12-23T15:53:29.082Z,7.62
2018-12-23T15:55:57.623Z,7.59
2018-12-23T15:58:26.187Z,7.59
2018-12-23T16:00:54.736Z,7.49
2018-12-23T16:03:23.274Z,7.51
2018-12-23T16:05:51.858Z,7.62
2018-12-23T16:08:20.412Z,7.49
2018-12-23T16:10:49.002Z,7.49
2018-12-23T16:13:17.540Z,7.49
2018-12-23T16:15:46.113Z,7.56
2018-12-23T16:18:14.670Z,7.53
2018-12-23T16:20:43.227Z,7.57
2018-12-23T16:23:11.805Z,7.59
2018-12-23T16:25:40.361Z,7.57
2018-12-23T16:28:08.893Z,7.53
2018-12-23T16:30:37.448Z,7.49
2018-12-23T16:33:05.999Z,7.44
2018-12-23T16:35:34.558Z,7.49
2018-12-23T16:38:03.096Z,7.48
2018-12-23T16:40:31.644Z,7.49
2018-12-23T16:43:00.183Z,7.43
2018-12-23T16:45:29.015Z,7.38
2018-12-23T16:47:57.565Z,7.46
2018-12-23T16:50:26.138Z,7.48
2018-12-23T16:52:54.705Z,7.51
2018-12-23T16:55:23.256Z,7.48
2018-12-23T16:57:51.793Z,7.36
2018-12-23T17:00:20.331Z,7.44
2018-12-23T17:02:48.891Z,7.36
2018-12-23T17:05:17.436Z,7.35
2018-12-23T17:07:46.000Z,7.37
2018-12-23T17:10:14.541Z,7.38
2018-12-23T17:12:43.126Z,7.48
2018-12-23T17:15:11.662Z,7.45
2018-12-23T17:17:40.229Z,7.38
2018-12-23T17:20:10.806Z,7.31
2018-12-23T17:22:39.388Z,7.35
2018-12-23T17:25:07.929Z,7.41
2018-12-23T17:27:36.540Z,7.35
2018-12-23T17:30:06.614Z,7.42
2018-12-23T17:32:35.227Z,7.36
2018-12-23T17:35:03.828Z,7.41
2018-12-23T17:37:32.392Z,7.45
2018-12-23T17:40:00.931Z,7.38
2018-12-23T17:42:29.526Z,7.44
2018-12-23T17:44:58.074Z,7.36
2018-12-23T17:47:26.646Z,7.41
2018-12-23T17:49:55.178Z,7.34
2018-12-23T17:52:23.782Z,7.45
2018-12-23T17:54:52.315Z,7.43
2018-12-23T17:57:20.884Z,7.49
2018-12-23T17:59:49.451Z,7.45
2018-12-23T18:02:18.014Z,7.32
2018-12-23T18:04:46.554Z,7.48
2018-12-23T18:07:15.125Z,7.37
2018-12-23T18:09:43.667Z,7.46
2018-12-23T18:12:12.264Z,7.40
2018-12-23T18:14:40.815Z,7.44
2018-12-23T18:17:09.399Z,7.48
2018-12-23T18:19:37.900Z,7.46
2018-12-23T18:22:06.489Z,7.44
2018-12-23T18:24:35.035Z,7.36
2018-12-23T18:27:03.607Z,7.30
2018-12-23T18:29:32.154Z,7.27
2018-12-23T18:32:00.722Z,7.19
2018-12-23T18:34:29.308Z,7.23
2018-12-23T18:36:57.917Z,7.18
2018-12-23T18:39:26.481Z,7.08
2018-12-23T18:41:55.025Z,7.04
2018-12-23T18:44:23.599Z,7.00
2018-12-23T18:46:52.216Z,7.00
2018-12-23T18:49:20.794Z,7.07
2018-12-23T18:51:49.337Z,7.13
2018-12-23T18:54:17.908Z,7.07
2018-12-23T18:56:54.261Z,7.11
2018-12-23T18:59:23.143Z,7.13
2018-12-23T19:01:52.538Z,7.06
2018-12-23T19:04:21.239Z,7.20
2018-12-23T19:06:50.069Z,7.22
2018-12-23T19:09:19.476Z,7.19
2018-12-23T19:12:24.798Z,7.16
2018-12-23T19:14:59.170Z,7.11
2018-12-23T19:17:49.158Z,7.09
2018-12-23T19:20:48.398Z,7.12
2018-12-23T19:23:28.662Z,7.06
2018-12-23T19:26:32.358Z,7.16
2018-12-23T19:29:03.963Z,7.08
2018-12-23T19:31:50.126Z,7.11
2018-12-23T19:34:39.159Z,7.11
2018-12-23T19:37:13.422Z,7.13
2018-12-23T19:39:56.894Z,7.13
2018-12-23T19:42:54.393Z,7.14
2018-12-23T19:45:34.422Z,7.05
2018-12-23T19:48:28.852Z,7.09
2018-12-23T19:51:03.150Z,7.21
2018-12-23T19:53:43.843Z,7.04
2018-12-23T19:56:33.846Z,7.08
2018-12-23T19:59:17.612Z,7.14
2018-12-23T20:02:05.742Z,7.04
2018-12-23T20:04:40.437Z,7.03
2018-12-23T20:07:24.510Z,7.17
2018-12-23T20:09:58.884Z,7.08
2018-12-23T20:12:58.874Z,7.11
2018-12-23T20:15:33.250Z,7.07
2018-12-23T20:18:07.777Z,7.02
2018-12-23T20:20:51.482Z,7.09
2018-12-23T20:23:38.126Z,7.15
2018-12-23T20:26:24.847Z,7.03
2018-12-23T20:29:20.146Z,7.06
2018-12-23T20:32:03.122Z,7.03
2018-12-23T20:34:37.500Z,6.96
2018-12-23T20:37:29.754Z,6.97
2018-12-23T20:40:17.761Z,6.95
2018-12-23T20:42:52.250Z,6.85
2018-12-23T20:45:49.230Z,6.93
2018-12-23T20:48:42.900Z,6.93
2018-12-23T20:51:32.993Z,6.89
2018-12-23T20:54:31.315Z,6.92
2018-12-23T20:57:08.527Z,6.89
2018-12-23T20:59:55.216Z,6.83
2018-12-23T21:02:49.437Z,6.84
2018-12-23T21:05:42.108Z,6.89
2018-12-23T21:08:22.192Z,6.87
2018-12-23T21:11:02.508Z,6.89
2018-12-23T21:13:54.770Z,6.78
2018-12-23T21:16:41.405Z,6.77
2018-12-23T21:19:28.191Z,6.84
2018-12-23T21:22:08.141Z,6.84
2018-12-23T21:24:57.660Z,6.80
2018-12-23T21:27:54.396Z,6.84
2018-12-23T21:30:35.130Z,6.67
2018-12-23T21:33:15.668Z,6.77
2018-12-23T21:36:03.508Z,6.58
2018-12-23T21:38:41.099Z,6.63
2018-12-23T21:41:27.626Z,6.63
2018-12-23T21:44:15.476Z,6.66
2018-12-23T21:47:09.450Z,6.69
2018-12-23T21:49:56.417Z,6.64
2018-12-23T21:52:49.338Z,6.64
2018-12-23T21:55:26.451Z,6.62
2018-12-23T21:58:17.292Z,6.66
2018-12-23T22:01:15.945Z,6.67
2018-12-23T22:03:47.608Z,6.76
2018-12-23T22:06:40.247Z,6.83
2018-12-23T22:09:14.426Z,6.76
2018-12-23T22:12:10.331Z,6.70
2018-12-23T22:14:46.483Z,6.63
2018-12-23T22:17:15.079Z,6.61
2018-12-23T22:19:43.811Z,6.64
2018-12-23T22:22:12.373Z,6.63
2018-12-23T22:24:40.986Z,6.64
2018-12-23T22:27:09.526Z,6.66
2018-12-23T22:29:38.095Z,6.55
2018-12-23T22:32:06.751Z,6.46
2018-12-23T22:34:35.393Z,6.44
2018-12-23T22:37:03.928Z,6.40
2018-12-23T22:39:32.503Z,6.34
2018-12-23T22:42:01.061Z,6.34
2018-12-23T22:44:29.610Z,6.27
2018-12-23T22:46:58.163Z,6.31
2018-12-23T22:49:26.740Z,6.28
2018-12-23T22:51:55.318Z,6.27
2018-12-23T22:54:23.878Z,6.27
2018-12-23T22:56:52.436Z,6.28
2018-12-23T22:59:21.052Z,6.19
2018-12-23T23:01:49.655Z,6.21
2018-12-23T23:04:18.225Z,6.29
2018-12-23T23:06:46.791Z,6.14
2018-12-23T23:09:15.353Z,6.18
2018-12-23T23:11:49.909Z,6.20
2018-12-23T23:14:15.871Z,6.24
2018-12-23T23:16:44.419Z,6.18
2018-12-23T23:19:12.970Z,6.28
2018-12-23T23:21:41.626Z,6.25
2018-12-23T23:24:10.173Z,6.22
2018-12-23T23:26:38.742Z,6.21
2018-12-23T23:29:07.325Z,6.08
2018-12-23T23:31:35.869Z,6.15
2018-12-23T23:34:04.425Z,6.17
2018-12-23T23:36:32.962Z,6.20
2018-12-23T23:39:01.521Z,6.24
2018-12-23T23:41:30.065Z,6.15
2018-12-23T23:43:58.659Z,6.15
2018-12-23T23:46:27.188Z,6.13
2018-12-23T23:48:55.745Z,6.07
2018-12-23T23:51:24.285Z,6.07
2018-12-23T23:53:52.894Z,6.02
2018-12-23T23:56:21.437Z,5.96
2018-12-23T23:58:49.979Z,5.97
